Main page
METAR-TAF:

METAR-TAF

Airports :

Jerez Airport

Jerez de la Frontera, Spain

latitude: 36-45N, longitude: 006-04W, elevation: 27 m

Current weather observation

The report was made 22 minutes ago, at 02:00 UTC
Wind 2 kt from variable directions
Temperature 9°C
Humidity 87%
Pressure 1024 hPa
Visibility 10 km or more
no clouds below 1500 m and no cumulonimbus

METAR: LEJR 210200Z AUTO VRB02KT CAVOK 09/07 Q1024

Time: 03:22 (02:22 UTC)

Forecast

The report was made 3 hours and 22 minutes ago, at 23:00 UTC
Forecast valid from 21 at 00 UTC to 21 at 24 UTC
Wind 4 kt from the Northeast
Visibility 10 km or more
no clouds below 1500 m and no cumulonimbus
Becoming
from 21 at 11 UTC to 21 at 14 UTC
Wind 10 kt from the Southeast

TAF: LEJR 202300Z 2100/2124 04004KT CAVOK TX22/2115Z TN07/2106Z BECMG 2111/2114 14010KT

Weather observations and forecasts of more than 4000 airports (METAR and TAF reports).

The available stations are represented by yellow and red dots on the map.

Hover mouse over dot to see the name of the station.

Then click to see weather observations and forecasts.

To change the map : click on the green buttons with a black cross to zoom in, on the green button with a dash to zoom out, or on the green arrows for adjacent maps.


METAR-TAF: